createdAt,value
2022-11-13T00:04:52.619Z,101630.22
2022-11-13T00:10:12.888Z,101624.25
2022-11-13T00:15:33.160Z,101625.84
2022-11-13T00:20:53.254Z,101618.06
2022-11-13T00:26:16.518Z,101611.41
2022-11-13T00:31:36.556Z,101606.81
2022-11-13T00:36:56.944Z,101608.25
2022-11-13T00:42:17.018Z,101606.56
2022-11-13T00:47:37.206Z,101591.44
2022-11-13T00:52:57.397Z,101599.16
2022-11-13T00:58:18.512Z,101609.38
2022-11-13T01:03:38.849Z,101605.50
2022-11-13T01:08:59.879Z,101607.38
2022-11-13T01:14:20.079Z,101600.09
2022-11-13T01:19:40.436Z,101596.50
2022-11-13T01:25:00.539Z,101587.56
2022-11-13T01:30:20.470Z,101589.38
2022-11-13T01:35:40.496Z,101573.44
2022-11-13T01:41:00.672Z,101561.63
2022-11-13T01:46:31.475Z,101565.97
2022-11-13T01:51:54.806Z,101559.44
2022-11-13T01:57:16.003Z,101548.19
2022-11-13T02:02:36.653Z,101545.81
2022-11-13T02:07:56.725Z,101541.72
2022-11-13T02:13:17.174Z,101542.56
2022-11-13T02:18:38.512Z,101536.19
2022-11-13T02:24:36.816Z,101534.06
2022-11-13T02:29:58.024Z,101531.91
2022-11-13T02:35:33.022Z,101528.75
2022-11-13T02:40:53.296Z,101521.66
2022-11-13T02:46:13.803Z,101528.97
2022-11-13T02:51:33.747Z,101538.50
2022-11-13T02:56:53.635Z,101525.88
2022-11-13T03:02:13.637Z,101514.19
2022-11-13T03:07:33.618Z,101506.81
2022-11-13T03:12:54.061Z,101495.69
2022-11-13T03:18:14.428Z,101498.06
2022-11-13T03:23:34.865Z,101492.06
2022-11-13T03:28:55.361Z,101503.25
2022-11-13T03:34:15.645Z,101502.88
2022-11-13T03:39:35.886Z,101496.34
2022-11-13T03:44:55.992Z,101489.75
2022-11-13T03:50:16.239Z,101486.81
2022-11-13T03:55:36.719Z,101498.28
2022-11-13T04:00:56.788Z,101487.16
2022-11-13T04:06:17.501Z,101502.53
2022-11-13T04:11:37.448Z,101483.94
2022-11-13T04:16:57.588Z,101484.84
2022-11-13T04:22:17.808Z,101478.66
2022-11-13T04:27:38.131Z,101463.63
2022-11-13T04:32:58.334Z,101457.88
2022-11-13T04:38:18.733Z,101462.44
2022-11-13T04:43:38.872Z,101452.06
2022-11-13T04:48:59.225Z,101446.16
2022-11-13T04:54:21.999Z,101458.56
2022-11-13T04:59:44.379Z,101450.59
2022-11-13T05:05:08.190Z,101435.81
2022-11-13T05:10:28.503Z,101436.66
2022-11-13T05:15:48.742Z,101431.34
2022-11-13T05:21:09.589Z,101433.06
2022-11-13T05:26:29.803Z,101424.00
2022-11-13T05:31:50.123Z,101411.41
2022-11-13T05:37:10.430Z,101413.03
2022-11-13T05:42:30.591Z,101411.00
2022-11-13T05:47:50.934Z,101407.81
2022-11-13T05:53:11.116Z,101401.25
2022-11-13T05:58:31.514Z,101403.47
2022-11-13T06:03:52.380Z,101408.94
2022-11-13T06:09:14.640Z,101411.84
2022-11-13T06:14:34.886Z,101408.56
2022-11-13T06:19:55.139Z,101413.41
2022-11-13T06:25:15.352Z,101406.19
2022-11-13T06:30:35.522Z,101409.78
2022-11-13T06:35:55.453Z,101415.25
2022-11-13T06:41:17.687Z,101412.50
2022-11-13T06:46:37.568Z,101419.53
2022-11-13T06:51:57.766Z,101413.47
2022-11-13T06:57:18.047Z,101410.47
2022-11-13T07:02:37.992Z,101407.72
2022-11-13T07:07:58.168Z,101402.22
2022-11-13T07:13:18.372Z,101406.13
2022-11-13T07:18:38.798Z,101396.41
2022-11-13T07:23:58.823Z,101415.25
2022-11-13T07:29:19.065Z,101391.91
2022-11-13T07:34:39.242Z,101399.75
2022-11-13T07:39:59.475Z,101407.06
2022-11-13T07:45:19.724Z,101397.56
2022-11-13T07:50:40.151Z,101396.53
2022-11-13T07:56:02.183Z,101400.13
2022-11-13T08:01:22.708Z,101389.31
2022-11-13T08:06:42.640Z,101381.44
2022-11-13T08:12:02.926Z,101372.47
2022-11-13T08:17:23.101Z,101377.78
2022-11-13T08:22:43.408Z,101378.72
2022-11-13T08:28:05.546Z,101368.47
2022-11-13T08:33:27.879Z,101367.13
2022-11-13T08:38:48.327Z,101362.28
2022-11-13T08:44:08.835Z,101368.84
2022-11-13T08:49:28.822Z,101377.84
2022-11-13T08:54:48.756Z,101362.19
2022-11-13T09:00:09.535Z,101361.94
2022-11-13T09:05:29.615Z,101358.03
2022-11-13T09:10:49.801Z,101354.66
2022-11-13T09:16:10.179Z,101368.91
2022-11-13T09:21:30.516Z,101362.59
2022-11-13T09:26:50.820Z,101351.84
2022-11-13T09:32:11.044Z,101358.38
2022-11-13T09:37:32.620Z,101354.13
2022-11-13T09:42:52.654Z,101348.19
2022-11-13T09:48:26.732Z,101348.31
2022-11-13T09:53:46.932Z,101348.00
2022-11-13T09:59:20.767Z,101349.63
2022-11-13T10:04:58.274Z,101341.13
2022-11-13T10:11:00.336Z,101334.84
2022-11-13T10:16:40.683Z,101326.50
2022-11-13T10:22:48.475Z,101335.16
2022-11-13T10:28:48.292Z,101314.53
2022-11-13T10:33:57.342Z,101310.06
2022-11-13T10:39:17.634Z,101306.50
2022-11-13T10:44:37.908Z,101306.91
2022-11-13T10:50:09.906Z,101301.44
2022-11-13T10:55:39.680Z,101299.94
2022-11-13T11:00:59.738Z,101281.03
2022-11-13T11:06:56.318Z,101275.97
2022-11-13T11:12:15.889Z,101271.44
2022-11-13T11:17:41.463Z,101266.09
2022-11-13T11:23:18.437Z,101258.09
2022-11-13T11:29:06.187Z,101262.53
2022-11-13T11:34:39.020Z,101244.63
2022-11-13T11:40:14.756Z,101245.38
2022-11-13T11:45:53.873Z,101233.91
2022-11-13T11:51:32.679Z,101227.22
2022-11-13T11:56:58.221Z,101227.47
2022-11-13T12:02:27.374Z,101229.91
2022-11-13T12:08:05.889Z,101217.41
2022-11-13T12:13:42.986Z,101213.16
2022-11-13T12:19:06.274Z,101204.69
2022-11-13T12:24:26.219Z,101192.16
2022-11-13T12:29:55.462Z,101190.81
2022-11-13T12:35:20.964Z,101167.59
2022-11-13T12:40:56.197Z,101175.63
2022-11-13T12:46:16.734Z,101174.81
2022-11-13T12:51:41.081Z,101181.97
2022-11-13T12:57:13.406Z,101189.63
2022-11-13T13:03:11.515Z,101164.94
2022-11-13T13:08:41.772Z,101155.09
2022-11-13T13:14:31.364Z,101162.16
2022-11-13T13:20:24.529Z,101156.91
2022-11-13T13:25:44.792Z,101134.84
2022-11-13T13:31:08.235Z,101138.00
2022-11-13T13:36:44.576Z,101140.56
2022-11-13T13:42:36.807Z,101136.53
2022-11-13T13:47:57.569Z,101118.81
2022-11-13T13:53:26.924Z,101115.28
2022-11-13T13:58:47.493Z,101120.53
2022-11-13T14:04:22.391Z,101112.38
2022-11-13T14:09:42.719Z,101123.31
2022-11-13T14:15:23.669Z,101114.31
2022-11-13T14:20:49.112Z,101103.88
2022-11-13T14:26:11.817Z,101107.16
2022-11-13T14:31:34.586Z,101109.09
2022-11-13T14:36:54.678Z,101102.31
2022-11-13T14:42:21.826Z,101093.81
2022-11-13T14:47:42.618Z,101079.22
2022-11-13T14:53:09.980Z,101090.88
2022-11-13T14:58:32.543Z,101089.31
2022-11-13T15:03:52.963Z,101076.06
2022-11-13T15:09:15.923Z,101074.38
2022-11-13T15:14:37.507Z,101081.41
2022-11-13T15:19:57.502Z,101066.72
2022-11-13T15:25:21.765Z,101073.53
2022-11-13T15:30:42.304Z,101069.88
2022-11-13T15:36:02.513Z,101059.19
2022-11-13T15:41:24.812Z,101061.59
2022-11-13T15:46:45.412Z,101055.91
2022-11-13T15:52:05.382Z,101061.25
2022-11-13T15:57:27.760Z,101054.19
2022-11-13T16:02:51.839Z,101058.47
2022-11-13T16:08:13.841Z,101053.38
2022-11-13T16:13:34.200Z,101062.56
2022-11-13T16:18:59.839Z,101052.75
2022-11-13T16:24:24.068Z,101054.91
2022-11-13T16:29:44.815Z,101054.34
2022-11-13T16:35:05.488Z,101058.94
2022-11-13T16:40:26.597Z,101051.66
2022-11-13T16:45:46.669Z,101046.44
2022-11-13T16:51:06.754Z,101048.16
2022-11-13T16:56:29.192Z,101053.97
2022-11-13T17:01:54.479Z,101038.19
2022-11-13T17:07:15.396Z,101035.78
2022-11-13T17:12:35.597Z,101037.69
2022-11-13T17:17:59.838Z,101033.09
2022-11-13T17:23:19.798Z,101024.47
2022-11-13T17:28:40.370Z,101021.81
2022-11-13T17:34:00.828Z,101014.66
2022-11-13T17:39:21.696Z,101008.59
2022-11-13T17:44:41.766Z,101004.94
2022-11-13T17:50:07.163Z,101010.03
2022-11-13T17:55:27.553Z,100996.81
2022-11-13T18:00:47.908Z,100997.78
2022-11-13T18:06:12.853Z,100996.22
2022-11-13T18:11:34.018Z,100996.44
2022-11-13T18:16:54.178Z,101001.66
2022-11-13T18:22:14.951Z,100997.75
2022-11-13T18:27:36.514Z,100991.09
2022-11-13T18:32:56.883Z,100987.69
2022-11-13T18:38:17.087Z,100985.25
2022-11-13T18:43:37.803Z,100985.00
2022-11-13T18:48:59.165Z,100984.75
2022-11-13T18:54:20.474Z,100982.31
2022-11-13T18:59:40.961Z,100973.81
2022-11-13T19:05:01.102Z,100968.13
2022-11-13T19:10:21.322Z,100954.16
2022-11-13T19:15:41.580Z,100955.84
2022-11-13T19:21:21.709Z,100939.56
2022-11-13T19:26:42.356Z,100941.50
2022-11-13T19:32:02.368Z,100942.13
2022-11-13T19:37:22.447Z,100948.16
2022-11-13T19:42:42.833Z,100949.97
2022-11-13T19:48:02.780Z,100933.25
2022-11-13T19:53:22.766Z,100933.47
2022-11-13T19:58:44.460Z,100935.69
2022-11-13T20:04:05.599Z,100933.75
2022-11-13T20:09:25.897Z,100933.84
2022-11-13T20:14:46.088Z,100926.22
2022-11-13T20:20:06.808Z,100925.53
2022-11-13T20:25:28.283Z,100934.13
2022-11-13T20:30:48.339Z,100916.97
2022-11-13T20:36:08.667Z,100922.31
2022-11-13T20:41:28.799Z,100911.91
2022-11-13T20:46:49.068Z,100913.97
2022-11-13T20:52:09.781Z,100913.84
2022-11-13T20:57:29.955Z,100906.34
2022-11-13T21:02:53.214Z,100914.09
2022-11-13T21:08:13.225Z,100905.34
2022-11-13T21:13:34.485Z,100898.72
2022-11-13T21:18:58.576Z,100899.78
2022-11-13T21:24:18.650Z,100889.69
2022-11-13T21:29:39.072Z,100890.19
2022-11-13T21:34:59.350Z,100892.47
2022-11-13T21:40:19.605Z,100879.50
2022-11-13T21:45:39.931Z,100879.84
2022-11-13T21:51:00.159Z,100885.09
2022-11-13T21:56:20.534Z,100883.63
2022-11-13T22:01:40.708Z,100893.47
2022-11-13T22:07:00.916Z,100892.22
2022-11-13T22:12:24.090Z,100897.09
2022-11-13T22:17:45.087Z,100897.34
2022-11-13T22:23:05.834Z,100903.69
2022-11-13T22:28:25.749Z,100905.13
2022-11-13T22:33:48.951Z,100897.72
2022-11-13T22:39:10.861Z,100899.44
2022-11-13T22:44:45.748Z,100893.38
2022-11-13T22:50:11.417Z,100882.31
2022-11-13T22:55:31.428Z,100886.53
2022-11-13T23:00:51.792Z,100880.63
2022-11-13T23:06:13.018Z,100870.53
2022-11-13T23:11:37.850Z,100865.66
2022-11-13T23:16:57.826Z,100852.94
2022-11-13T23:22:17.851Z,100847.97
2022-11-13T23:27:38.251Z,100843.72
2022-11-13T23:32:58.553Z,100847.13
2022-11-13T23:38:18.771Z,100831.34
2022-11-13T23:49:18.730Z,100829.88
2022-11-13T23:54:38.908Z,100823.56
2022-11-13T23:59:58.832Z,100812.41
